Terminal Aerodrome Forecast
Issued by NWS Sioux Falls, SD

Home | Current Version | Previous Version | Text Only | Print | Product List | Glossary On
Versions: 1 2 3 4 5 6 7 8 9 10 11 12
917
FTUS43 KFSD 041740
TAFFSD
TAF
KFSD 041740Z 0418/0518 27010KT P6SM SKC
     FM042300 23005KT P6SM SKC
     FM050500 18005KT P6SM BKN130
     FM050900 17013KT P6SM OVC110
     FM051500 18011G16KT P6SM BKN150=

USA.gov is the U.S. government's official web portal to all federal, state and local government web resources and services.